DHL126A EDDF-LFPG
Flight info
| Callsign | DHL126A |
|---|---|
| Flight time | 1h 5m |
| Altitude | 24000 |
| Route | SOBRA2L SOBRA Y180 DIK UN857 TOLVU/N0415F230 DCT RAPOR DCT VEDUS |
| Aircraft | A346/H-SDE2E3FGHIJ3J4J5M1RWXY/LB1D1 |
Departure
| Time | 2026-05-06 14:20 |
|---|---|
| Airport | Frankfurt Main Airport (EDDF) |
Arrival
| Time | 2026-05-06 15:25 |
|---|---|
| Airport | Charles de Gaulle International Airport (LFPG) |
| Time | Latitude | Longitude | Altitude | Speed | Heading |
|---|---|---|---|---|---|
| 2026-05-06 13:51 | 50.04801 | 8.56945 | 384 ft | 0 kts | 295° |
| 2026-05-06 14:02 | 50.04802 | 8.56945 | 384 ft | 0 kts | 295° |
| 2026-05-06 14:03 | 50.04796 | 8.56960 | 384 ft | 2 kts | 304° |
| 2026-05-06 14:03 | 50.04788 | 8.56978 | 384 ft | 1 kts | 308° |
| 2026-05-06 14:03 | 50.04781 | 8.56992 | 384 ft | 2 kts | 291° |
| 2026-05-06 14:03 | 50.04780 | 8.57013 | 384 ft | 2 kts | 250° |
| 2026-05-06 14:04 | 50.04790 | 8.57033 | 384 ft | 2 kts | 211° |
| 2026-05-06 14:04 | 50.04796 | 8.57038 | 385 ft | 0 kts | 204° |
| 2026-05-06 14:08 | 50.04740 | 8.57000 | 383 ft | 17 kts | 204° |
| 2026-05-06 14:08 | 50.04599 | 8.56903 | 379 ft | 21 kts | 196° |
| 2026-05-06 14:08 | 50.04464 | 8.56871 | 378 ft | 17 kts | 188° |
| 2026-05-06 14:08 | 50.04442 | 8.56866 | 378 ft | 0 kts | 189° |
| 2026-05-06 14:09 | 50.04440 | 8.56865 | 377 ft | 3 kts | 199° |
| 2026-05-06 14:09 | 50.04415 | 8.56798 | 376 ft | 9 kts | 265° |
| 2026-05-06 14:09 | 50.04407 | 8.56674 | 374 ft | 13 kts | 261° |
| 2026-05-06 14:09 | 50.04377 | 8.56523 | 373 ft | 15 kts | 250° |
| 2026-05-06 14:10 | 50.04336 | 8.56352 | 369 ft | 18 kts | 250° |
| 2026-05-06 14:10 | 50.04288 | 8.56156 | 368 ft | 19 kts | 249° |
| 2026-05-06 14:10 | 50.04239 | 8.55949 | 365 ft | 21 kts | 250° |
| 2026-05-06 14:10 | 50.04184 | 8.55720 | 363 ft | 22 kts | 250° |
| 2026-05-06 14:11 | 50.04136 | 8.55525 | 364 ft | 15 kts | 250° |
| 2026-05-06 14:11 | 50.04095 | 8.55352 | 363 ft | 17 kts | 251° |
| 2026-05-06 14:11 | 50.04052 | 8.55166 | 361 ft | 18 kts | 250° |
| 2026-05-06 14:11 | 50.04003 | 8.54958 | 356 ft | 22 kts | 250° |
| 2026-05-06 14:12 | 50.03947 | 8.54724 | 352 ft | 23 kts | 250° |
| 2026-05-06 14:12 | 50.03887 | 8.54476 | 351 ft | 20 kts | 249° |
| 2026-05-06 14:12 | 50.03816 | 8.54268 | 350 ft | 20 kts | 240° |
| 2026-05-06 14:12 | 50.03756 | 8.54066 | 353 ft | 19 kts | 250° |
| 2026-05-06 14:13 | 50.03713 | 8.53873 | 356 ft | 17 kts | 251° |
| 2026-05-06 14:13 | 50.03670 | 8.53689 | 356 ft | 18 kts | 249° |
| 2026-05-06 14:13 | 50.03624 | 8.53501 | 355 ft | 19 kts | 249° |
| 2026-05-06 14:13 | 50.03572 | 8.53294 | 351 ft | 21 kts | 249° |
| 2026-05-06 14:14 | 50.03518 | 8.53069 | 350 ft | 22 kts | 250° |
| 2026-05-06 14:14 | 50.03460 | 8.52835 | 348 ft | 23 kts | 247° |
| 2026-05-06 14:14 | 50.03439 | 8.52758 | 348 ft | 0 kts | 248° |
| 2026-05-06 14:18 | 50.03437 | 8.52749 | 348 ft | 0 kts | 248° |
| 2026-05-06 14:18 | 50.03421 | 8.52695 | 348 ft | 10 kts | 243° |
| 2026-05-06 14:18 | 50.03364 | 8.52611 | 346 ft | 12 kts | 200° |
| 2026-05-06 14:18 | 50.03293 | 8.52596 | 345 ft | 0 kts | 182° |
| 2026-05-06 14:19 | 50.03292 | 8.52596 | 345 ft | 0 kts | 183° |
| 2026-05-06 14:19 | 50.03233 | 8.52594 | 344 ft | 36 kts | 181° |
| 2026-05-06 14:19 | 50.02744 | 8.52600 | 336 ft | 103 kts | 180° |
| 2026-05-06 14:19 | 50.01834 | 8.52612 | 339 ft | 157 kts | 181° |
| 2026-05-06 14:20 | 50.00576 | 8.52617 | 378 ft | 195 kts | 182° |
| 2026-05-06 14:20 | 49.99194 | 8.52659 | 784 ft | 204 kts | 180° |
| 2026-05-06 14:20 | 49.97748 | 8.52750 | 1161 ft | 215 kts | 179° |
| 2026-05-06 14:20 | 49.96195 | 8.52864 | 1529 ft | 234 kts | 179° |
| 2026-05-06 14:21 | 49.94479 | 8.52989 | 1908 ft | 257 kts | 179° |
| 2026-05-06 14:21 | 49.92637 | 8.53121 | 2282 ft | 278 kts | 179° |
| 2026-05-06 14:21 | 49.90647 | 8.53263 | 2647 ft | 288 kts | 179° |
| 2026-05-06 14:21 | 49.88693 | 8.53385 | 2987 ft | 283 kts | 183° |
| 2026-05-06 14:22 | 49.86727 | 8.53051 | 3339 ft | 285 kts | 195° |
| 2026-05-06 14:22 | 49.84823 | 8.52149 | 3698 ft | 286 kts | 202° |
| 2026-05-06 14:22 | 49.82933 | 8.51070 | 3972 ft | 288 kts | 203° |
| 2026-05-06 14:22 | 49.81064 | 8.49984 | 3991 ft | 288 kts | 203° |
| 2026-05-06 14:23 | 49.79196 | 8.48910 | 3994 ft | 289 kts | 203° |
| 2026-05-06 14:23 | 49.77446 | 8.47393 | 3971 ft | 286 kts | 225° |
| 2026-05-06 14:23 | 49.76295 | 8.44932 | 3984 ft | 284 kts | 250° |
| 2026-05-06 14:23 | 49.75911 | 8.41987 | 3994 ft | 283 kts | 274° |
| 2026-05-06 14:24 | 49.76251 | 8.38970 | 4014 ft | 284 kts | 285° |
| 2026-05-06 14:24 | 49.76756 | 8.35999 | 4012 ft | 284 kts | 286° |
| 2026-05-06 14:24 | 49.77262 | 8.33033 | 4007 ft | 284 kts | 285° |
| 2026-05-06 14:24 | 49.77753 | 8.30076 | 4218 ft | 285 kts | 285° |
| 2026-05-06 14:25 | 49.78236 | 8.27115 | 4668 ft | 286 kts | 285° |
| 2026-05-06 14:25 | 49.78721 | 8.24118 | 5125 ft | 287 kts | 285° |
| 2026-05-06 14:25 | 49.79204 | 8.21110 | 5580 ft | 288 kts | 285° |
| 2026-05-06 14:25 | 49.79686 | 8.18099 | 6035 ft | 289 kts | 285° |
| 2026-05-06 14:26 | 49.80169 | 8.15076 | 6489 ft | 290 kts | 284° |
| 2026-05-06 14:26 | 49.80653 | 8.12044 | 6945 ft | 290 kts | 284° |
| 2026-05-06 14:26 | 49.81139 | 8.08996 | 7402 ft | 291 kts | 284° |
| 2026-05-06 14:26 | 49.81623 | 8.05947 | 7858 ft | 292 kts | 284° |
| 2026-05-06 14:27 | 49.82100 | 8.02939 | 8307 ft | 292 kts | 283° |
| 2026-05-06 14:27 | 49.82586 | 7.99865 | 8763 ft | 293 kts | 283° |
| 2026-05-06 14:27 | 49.83053 | 7.96901 | 9200 ft | 295 kts | 283° |
| 2026-05-06 14:27 | 49.83546 | 7.93764 | 9659 ft | 296 kts | 283° |
| 2026-05-06 14:28 | 49.84027 | 7.90700 | 10106 ft | 297 kts | 283° |
| 2026-05-06 14:28 | 49.84523 | 7.87532 | 10566 ft | 299 kts | 282° |
| 2026-05-06 14:28 | 49.85002 | 7.84459 | 11010 ft | 300 kts | 282° |
| 2026-05-06 14:28 | 49.85498 | 7.81280 | 11468 ft | 301 kts | 282° |
| 2026-05-06 14:29 | 49.85990 | 7.78116 | 11920 ft | 303 kts | 282° |
| 2026-05-06 14:29 | 49.86487 | 7.74953 | 12372 ft | 304 kts | 282° |
| 2026-05-06 14:29 | 49.86990 | 7.71773 | 12809 ft | 305 kts | 282° |
| 2026-05-06 14:29 | 49.87494 | 7.68548 | 13000 ft | 305 kts | 282° |
| 2026-05-06 14:30 | 49.87987 | 7.65359 | 13002 ft | 303 kts | 282° |
| 2026-05-06 14:30 | 49.88472 | 7.62217 | 13007 ft | 303 kts | 282° |
| 2026-05-06 14:30 | 49.88960 | 7.59046 | 13010 ft | 303 kts | 282° |
| 2026-05-06 14:30 | 49.89455 | 7.55826 | 13012 ft | 303 kts | 282° |
| 2026-05-06 14:31 | 49.89947 | 7.52630 | 13014 ft | 303 kts | 282° |
| 2026-05-06 14:31 | 49.90432 | 7.49469 | 13015 ft | 303 kts | 282° |
| 2026-05-06 14:31 | 49.90921 | 7.46274 | 13016 ft | 303 kts | 282° |
| 2026-05-06 14:31 | 49.91408 | 7.43089 | 13018 ft | 302 kts | 282° |
| 2026-05-06 14:32 | 49.91889 | 7.39933 | 13305 ft | 308 kts | 282° |
| 2026-05-06 14:32 | 49.92390 | 7.36644 | 13868 ft | 315 kts | 282° |
| 2026-05-06 14:32 | 49.92900 | 7.33288 | 14430 ft | 321 kts | 281° |
| 2026-05-06 14:32 | 49.93415 | 7.29888 | 14986 ft | 328 kts | 281° |
| 2026-05-06 14:33 | 49.93943 | 7.26403 | 15546 ft | 334 kts | 281° |
| 2026-05-06 14:33 | 49.94474 | 7.22886 | 16100 ft | 339 kts | 281° |
| 2026-05-06 14:33 | 49.95008 | 7.19345 | 16649 ft | 345 kts | 281° |
| 2026-05-06 14:33 | 49.95560 | 7.15674 | 17210 ft | 349 kts | 281° |
| 2026-05-06 14:34 | 49.96113 | 7.11991 | 17766 ft | 351 kts | 281° |
| 2026-05-06 14:34 | 49.96667 | 7.08292 | 18322 ft | 352 kts | 281° |
| 2026-05-06 14:34 | 49.97215 | 7.04620 | 18872 ft | 353 kts | 281° |
| 2026-05-06 14:34 | 49.97773 | 7.00866 | 19431 ft | 355 kts | 281° |
| 2026-05-06 14:35 | 49.98240 | 6.97723 | 19898 ft | 356 kts | 281° |
| 2026-05-06 14:35 | 49.98656 | 6.94730 | 20338 ft | 357 kts | 278° |
| 2026-05-06 14:35 | 49.99144 | 6.87076 | 21443 ft | 360 kts | 270° |
| 2026-05-06 14:36 | 49.99087 | 6.82985 | 22027 ft | 361 kts | 268° |
| 2026-05-06 14:36 | 49.98982 | 6.79120 | 22578 ft | 363 kts | 268° |
| 2026-05-06 14:36 | 49.98868 | 6.75199 | 23132 ft | 364 kts | 268° |
| 2026-05-06 14:36 | 49.98751 | 6.71279 | 23671 ft | 365 kts | 268° |
| 2026-05-06 14:37 | 49.98629 | 6.67261 | 23975 ft | 368 kts | 268° |
| 2026-05-06 14:37 | 49.98507 | 6.63260 | 24008 ft | 368 kts | 267° |
| 2026-05-06 14:37 | 49.98235 | 6.59323 | 24013 ft | 368 kts | 261° |
| 2026-05-06 14:37 | 49.97604 | 6.55398 | 24019 ft | 370 kts | 254° |
| 2026-05-06 14:38 | 49.96654 | 6.51675 | 24023 ft | 372 kts | 248° |
| 2026-05-06 14:38 | 49.95478 | 6.48116 | 24029 ft | 372 kts | 246° |
| 2026-05-06 14:38 | 49.94273 | 6.44589 | 24032 ft | 372 kts | 245° |
| 2026-05-06 14:38 | 49.93039 | 6.41005 | 24035 ft | 373 kts | 245° |
| 2026-05-06 14:39 | 49.91811 | 6.37448 | 24037 ft | 373 kts | 245° |
| 2026-05-06 14:39 | 49.90588 | 6.33919 | 24041 ft | 373 kts | 245° |
| 2026-05-06 14:39 | 49.89350 | 6.30351 | 24042 ft | 373 kts | 245° |
| 2026-05-06 14:39 | 49.88123 | 6.26816 | 24042 ft | 373 kts | 245° |
| 2026-05-06 14:40 | 49.86879 | 6.23240 | 24041 ft | 373 kts | 245° |
| 2026-05-06 14:40 | 49.85657 | 6.19733 | 24041 ft | 373 kts | 245° |
| 2026-05-06 14:40 | 49.84417 | 6.16178 | 24041 ft | 373 kts | 245° |
| 2026-05-06 14:40 | 49.83183 | 6.12647 | 24041 ft | 373 kts | 245° |
| 2026-05-06 14:41 | 49.81958 | 6.09143 | 24041 ft | 373 kts | 245° |
| 2026-05-06 14:41 | 49.80734 | 6.05648 | 24041 ft | 373 kts | 245° |
| 2026-05-06 14:41 | 49.79514 | 6.02170 | 24041 ft | 373 kts | 245° |
| 2026-05-06 14:41 | 49.78279 | 5.98659 | 24025 ft | 373 kts | 245° |
| 2026-05-06 14:42 | 49.77032 | 5.95116 | 23964 ft | 372 kts | 245° |
| 2026-05-06 14:42 | 49.75809 | 5.91633 | 23890 ft | 372 kts | 245° |
| 2026-05-06 14:42 | 49.74663 | 5.88084 | 23817 ft | 370 kts | 248° |
| 2026-05-06 14:42 | 49.73635 | 5.84452 | 23850 ft | 370 kts | 250° |
| 2026-05-06 14:43 | 49.72728 | 5.80765 | 23885 ft | 369 kts | 252° |
| 2026-05-06 14:43 | 49.71871 | 5.77083 | 23900 ft | 369 kts | 252° |
| 2026-05-06 14:43 | 49.70999 | 5.73343 | 23907 ft | 369 kts | 252° |
| 2026-05-06 14:43 | 49.70184 | 5.69579 | 23903 ft | 368 kts | 258° |
| 2026-05-06 14:44 | 49.69685 | 5.65705 | 23911 ft | 368 kts | 262° |
| 2026-05-06 14:44 | 49.69273 | 5.61815 | 23911 ft | 367 kts | 262° |
| 2026-05-06 14:44 | 49.68862 | 5.57938 | 23911 ft | 367 kts | 262° |
| 2026-05-06 14:45 | 49.67999 | 5.50131 | 23911 ft | 368 kts | 261° |
| 2026-05-06 14:45 | 49.67560 | 5.46275 | 23779 ft | 367 kts | 261° |
| 2026-05-06 14:45 | 49.67113 | 5.42384 | 23576 ft | 366 kts | 261° |
| 2026-05-06 14:45 | 49.66665 | 5.38517 | 23376 ft | 365 kts | 261° |
| 2026-05-06 14:46 | 49.66225 | 5.34750 | 23181 ft | 364 kts | 260° |
| 2026-05-06 14:46 | 49.65775 | 5.30923 | 22985 ft | 363 kts | 260° |
| 2026-05-06 14:46 | 49.65334 | 5.27182 | 22790 ft | 363 kts | 260° |
| 2026-05-06 14:46 | 49.64906 | 5.23565 | 22601 ft | 362 kts | 260° |
| 2026-05-06 14:47 | 49.64437 | 5.19614 | 22394 ft | 361 kts | 260° |
| 2026-05-06 14:47 | 49.63983 | 5.15804 | 22195 ft | 360 kts | 260° |
| 2026-05-06 14:47 | 49.63534 | 5.12044 | 21997 ft | 359 kts | 260° |
| 2026-05-06 14:47 | 49.63081 | 5.08266 | 21797 ft | 358 kts | 260° |
| 2026-05-06 14:48 | 49.62622 | 5.04452 | 21596 ft | 358 kts | 260° |
| 2026-05-06 14:48 | 49.62169 | 5.00695 | 21397 ft | 357 kts | 260° |
| 2026-05-06 14:48 | 49.61720 | 4.96971 | 21199 ft | 355 kts | 260° |
| 2026-05-06 14:48 | 49.61270 | 4.93258 | 21001 ft | 354 kts | 260° |
| 2026-05-06 14:49 | 49.60818 | 4.89546 | 20802 ft | 352 kts | 260° |
| 2026-05-06 14:49 | 49.60371 | 4.85885 | 20604 ft | 351 kts | 260° |
| 2026-05-06 14:49 | 49.59945 | 4.82210 | 20405 ft | 349 kts | 262° |
| 2026-05-06 14:49 | 49.59657 | 4.78474 | 20205 ft | 348 kts | 265° |
| 2026-05-06 14:50 | 49.59517 | 4.74782 | 20006 ft | 348 kts | 268° |
| 2026-05-06 14:50 | 49.59504 | 4.71064 | 19807 ft | 347 kts | 269° |
| 2026-05-06 14:50 | 49.59519 | 4.67340 | 19607 ft | 346 kts | 269° |
| 2026-05-06 14:50 | 49.59535 | 4.63601 | 19405 ft | 346 kts | 269° |
| 2026-05-06 14:51 | 49.59550 | 4.59887 | 19205 ft | 345 kts | 269° |
| 2026-05-06 14:51 | 49.59565 | 4.56199 | 19005 ft | 344 kts | 269° |
| 2026-05-06 14:51 | 49.59579 | 4.52517 | 18806 ft | 344 kts | 269° |
| 2026-05-06 14:51 | 49.59592 | 4.48856 | 18607 ft | 343 kts | 269° |
| 2026-05-06 14:52 | 49.59604 | 4.45185 | 18407 ft | 342 kts | 269° |
| 2026-05-06 14:52 | 49.59615 | 4.41501 | 18206 ft | 342 kts | 269° |
| 2026-05-06 14:52 | 49.59625 | 4.37844 | 18006 ft | 341 kts | 269° |
| 2026-05-06 14:52 | 49.59634 | 4.34215 | 17809 ft | 340 kts | 269° |
| 2026-05-06 14:53 | 49.59641 | 4.30551 | 17610 ft | 340 kts | 269° |
| 2026-05-06 14:53 | 49.59648 | 4.26891 | 17409 ft | 339 kts | 269° |
| 2026-05-06 14:53 | 49.59653 | 4.23297 | 17211 ft | 338 kts | 269° |
| 2026-05-06 14:53 | 49.59657 | 4.19660 | 17021 ft | 338 kts | 269° |
| 2026-05-06 14:54 | 49.59659 | 4.16000 | 16975 ft | 338 kts | 269° |
| 2026-05-06 14:54 | 49.59661 | 4.12397 | 16768 ft | 336 kts | 269° |
| 2026-05-06 14:54 | 49.59537 | 4.08880 | 16469 ft | 329 kts | 259° |
| 2026-05-06 14:54 | 49.58916 | 4.05527 | 16279 ft | 320 kts | 248° |
| 2026-05-06 14:55 | 49.57893 | 4.02557 | 16024 ft | 312 kts | 240° |
| 2026-05-06 14:55 | 49.56736 | 3.99755 | 15803 ft | 312 kts | 239° |
| 2026-05-06 14:55 | 49.55565 | 3.96968 | 15580 ft | 311 kts | 239° |
| 2026-05-06 14:55 | 49.54395 | 3.94188 | 15372 ft | 311 kts | 239° |
| 2026-05-06 14:56 | 49.53220 | 3.91402 | 15153 ft | 310 kts | 239° |
| 2026-05-06 14:56 | 49.52046 | 3.88621 | 14928 ft | 310 kts | 239° |
| 2026-05-06 14:56 | 49.50902 | 3.85913 | 14708 ft | 309 kts | 239° |
| 2026-05-06 14:56 | 49.49749 | 3.83185 | 14487 ft | 308 kts | 239° |
| 2026-05-06 14:57 | 49.48633 | 3.80521 | 14269 ft | 307 kts | 242° |
| 2026-05-06 14:57 | 49.47650 | 3.77589 | 14042 ft | 306 kts | 248° |
| 2026-05-06 14:57 | 49.46932 | 3.74520 | 13817 ft | 304 kts | 255° |
| 2026-05-06 14:57 | 49.46380 | 3.71381 | 13593 ft | 304 kts | 256° |
| 2026-05-06 14:58 | 49.45854 | 3.68252 | 13369 ft | 303 kts | 256° |
| 2026-05-06 14:58 | 49.45338 | 3.65175 | 13148 ft | 303 kts | 256° |
| 2026-05-06 14:58 | 49.44801 | 3.61979 | 12981 ft | 302 kts | 256° |
| 2026-05-06 14:58 | 49.44276 | 3.58874 | 12975 ft | 302 kts | 256° |
| 2026-05-06 14:59 | 49.43740 | 3.55716 | 12972 ft | 303 kts | 256° |
| 2026-05-06 14:59 | 49.43209 | 3.52596 | 12970 ft | 303 kts | 256° |
| 2026-05-06 14:59 | 49.42679 | 3.49476 | 12970 ft | 303 kts | 256° |
| 2026-05-06 14:59 | 49.42096 | 3.46327 | 12969 ft | 303 kts | 252° |
| 2026-05-06 15:00 | 49.41336 | 3.43318 | 12969 ft | 303 kts | 247° |
| 2026-05-06 15:00 | 49.40446 | 3.40446 | 12964 ft | 294 kts | 246° |
| 2026-05-06 15:00 | 49.39565 | 3.37668 | 12960 ft | 281 kts | 246° |
| 2026-05-06 15:00 | 49.38705 | 3.34965 | 12967 ft | 280 kts | 245° |
| 2026-05-06 15:01 | 49.37853 | 3.32288 | 12972 ft | 280 kts | 245° |
| 2026-05-06 15:01 | 49.37001 | 3.29608 | 12830 ft | 280 kts | 245° |
| 2026-05-06 15:01 | 49.36143 | 3.26917 | 12626 ft | 279 kts | 245° |
| 2026-05-06 15:01 | 49.35285 | 3.24226 | 12426 ft | 279 kts | 245° |
| 2026-05-06 15:02 | 49.34434 | 3.21564 | 12227 ft | 279 kts | 245° |
| 2026-05-06 15:02 | 49.33576 | 3.18879 | 12026 ft | 278 kts | 245° |
| 2026-05-06 15:02 | 49.32729 | 3.16233 | 11827 ft | 278 kts | 245° |
| 2026-05-06 15:02 | 49.31874 | 3.13568 | 11627 ft | 278 kts | 245° |
| 2026-05-06 15:03 | 49.31018 | 3.10902 | 11426 ft | 277 kts | 245° |
| 2026-05-06 15:03 | 49.30165 | 3.08253 | 11227 ft | 277 kts | 245° |
| 2026-05-06 15:03 | 49.29316 | 3.05612 | 11028 ft | 277 kts | 246° |
| 2026-05-06 15:03 | 49.28459 | 3.02951 | 10827 ft | 276 kts | 246° |
| 2026-05-06 15:04 | 49.27620 | 3.00349 | 10622 ft | 270 kts | 246° |
| 2026-05-06 15:04 | 49.26830 | 2.97903 | 10424 ft | 264 kts | 246° |
| 2026-05-06 15:04 | 49.26011 | 2.95366 | 10224 ft | 264 kts | 247° |
| 2026-05-06 15:04 | 49.25214 | 2.92899 | 10028 ft | 264 kts | 247° |
| 2026-05-06 15:05 | 49.24411 | 2.90413 | 9831 ft | 264 kts | 247° |
| 2026-05-06 15:05 | 49.23599 | 2.87902 | 9632 ft | 264 kts | 247° |
| 2026-05-06 15:05 | 49.22791 | 2.85405 | 9434 ft | 264 kts | 248° |
| 2026-05-06 15:05 | 49.21963 | 2.82850 | 9232 ft | 264 kts | 248° |
| 2026-05-06 15:06 | 49.21148 | 2.80336 | 9032 ft | 264 kts | 248° |
| 2026-05-06 15:06 | 49.20332 | 2.77825 | 8832 ft | 263 kts | 248° |
| 2026-05-06 15:06 | 49.19529 | 2.75361 | 8608 ft | 255 kts | 248° |
| 2026-05-06 15:06 | 49.18757 | 2.73000 | 8393 ft | 245 kts | 248° |
| 2026-05-06 15:07 | 49.18011 | 2.70716 | 8188 ft | 234 kts | 248° |
| 2026-05-06 15:07 | 49.17295 | 2.68524 | 8082 ft | 230 kts | 248° |
| 2026-05-06 15:07 | 49.16578 | 2.66321 | 8023 ft | 230 kts | 248° |
| 2026-05-06 15:07 | 49.15867 | 2.64136 | 7924 ft | 230 kts | 248° |
| 2026-05-06 15:08 | 49.15150 | 2.61939 | 7824 ft | 230 kts | 248° |
| 2026-05-06 15:08 | 49.14436 | 2.59756 | 7712 ft | 230 kts | 248° |
| 2026-05-06 15:08 | 49.13731 | 2.57604 | 7515 ft | 229 kts | 248° |
| 2026-05-06 15:08 | 49.13038 | 2.55490 | 7320 ft | 229 kts | 248° |
| 2026-05-06 15:09 | 49.12317 | 2.53289 | 7118 ft | 229 kts | 248° |
| 2026-05-06 15:09 | 49.11601 | 2.51117 | 6924 ft | 230 kts | 248° |
| 2026-05-06 15:09 | 49.10894 | 2.48957 | 6728 ft | 229 kts | 248° |
| 2026-05-06 15:09 | 49.10181 | 2.46795 | 6531 ft | 230 kts | 248° |
| 2026-05-06 15:10 | 49.09471 | 2.44633 | 6331 ft | 228 kts | 248° |
| 2026-05-06 15:10 | 49.08749 | 2.42448 | 6128 ft | 229 kts | 248° |
| 2026-05-06 15:10 | 49.08035 | 2.40276 | 5931 ft | 227 kts | 248° |
| 2026-05-06 15:10 | 49.07335 | 2.38165 | 5734 ft | 230 kts | 248° |
| 2026-05-06 15:11 | 49.06613 | 2.35978 | 5534 ft | 230 kts | 248° |
| 2026-05-06 15:11 | 49.05899 | 2.33817 | 5335 ft | 230 kts | 248° |
| 2026-05-06 15:11 | 49.05176 | 2.31634 | 5136 ft | 232 kts | 247° |
| 2026-05-06 15:11 | 49.04453 | 2.29448 | 4890 ft | 228 kts | 247° |
| 2026-05-06 15:12 | 49.03735 | 2.27281 | 4683 ft | 226 kts | 247° |
| 2026-05-06 15:12 | 49.03020 | 2.25135 | 4483 ft | 229 kts | 247° |
| 2026-05-06 15:12 | 49.02309 | 2.22995 | 4285 ft | 229 kts | 247° |
| 2026-05-06 15:12 | 49.01589 | 2.20830 | 4091 ft | 229 kts | 247° |
| 2026-05-06 15:13 | 49.00863 | 2.18649 | 4032 ft | 229 kts | 247° |
| 2026-05-06 15:13 | 49.00142 | 2.16478 | 4037 ft | 229 kts | 247° |
| 2026-05-06 15:13 | 48.99417 | 2.14290 | 4030 ft | 229 kts | 247° |
| 2026-05-06 15:13 | 48.98700 | 2.12125 | 4027 ft | 229 kts | 247° |
| 2026-05-06 15:14 | 48.97984 | 2.09963 | 4026 ft | 229 kts | 247° |
| 2026-05-06 15:14 | 48.97262 | 2.07788 | 4026 ft | 229 kts | 247° |
| 2026-05-06 15:14 | 48.96537 | 2.05605 | 4026 ft | 229 kts | 247° |
| 2026-05-06 15:14 | 48.95823 | 2.03459 | 4026 ft | 229 kts | 247° |
| 2026-05-06 15:15 | 48.95101 | 2.01292 | 4026 ft | 229 kts | 247° |
| 2026-05-06 15:15 | 48.94381 | 1.99130 | 4026 ft | 229 kts | 247° |
| 2026-05-06 15:15 | 48.93666 | 1.96983 | 4025 ft | 229 kts | 247° |
| 2026-05-06 15:15 | 48.92945 | 1.94822 | 4025 ft | 229 kts | 247° |
| 2026-05-06 15:16 | 48.92448 | 1.92558 | 4013 ft | 223 kts | 268° |
| 2026-05-06 15:16 | 48.92644 | 1.90243 | 4019 ft | 219 kts | 292° |
| 2026-05-06 15:16 | 48.93467 | 1.88313 | 4021 ft | 217 kts | 316° |
| 2026-05-06 15:16 | 48.94745 | 1.87101 | 4022 ft | 218 kts | 340° |
| 2026-05-06 15:17 | 48.96260 | 1.86823 | 4022 ft | 222 kts | 4° |
| 2026-05-06 15:17 | 48.97718 | 1.87565 | 4023 ft | 227 kts | 28° |
| 2026-05-06 15:17 | 48.98856 | 1.89247 | 4023 ft | 234 kts | 54° |
| 2026-05-06 15:17 | 48.99445 | 1.91617 | 4030 ft | 239 kts | 76° |
| 2026-05-06 15:18 | 48.99627 | 1.94127 | 4035 ft | 241 kts | 83° |
| 2026-05-06 15:18 | 48.99706 | 1.96628 | 4022 ft | 230 kts | 84° |
| 2026-05-06 15:18 | 48.99779 | 1.99009 | 4009 ft | 220 kts | 83° |
| 2026-05-06 15:18 | 48.99885 | 2.01330 | 4018 ft | 219 kts | 82° |
| 2026-05-06 15:19 | 48.99999 | 2.03619 | 4002 ft | 208 kts | 82° |
| 2026-05-06 15:19 | 49.00103 | 2.05743 | 4000 ft | 199 kts | 82° |
| 2026-05-06 15:19 | 49.00206 | 2.07828 | 4015 ft | 198 kts | 82° |
| 2026-05-06 15:19 | 49.00308 | 2.09930 | 4021 ft | 198 kts | 82° |
| 2026-05-06 15:20 | 49.00410 | 2.12029 | 4024 ft | 198 kts | 82° |
| 2026-05-06 15:20 | 49.00512 | 2.14144 | 4025 ft | 198 kts | 82° |
| 2026-05-06 15:20 | 49.00613 | 2.16249 | 4025 ft | 198 kts | 82° |
| 2026-05-06 15:20 | 49.00716 | 2.18346 | 4025 ft | 199 kts | 82° |
| 2026-05-06 15:21 | 49.00819 | 2.20448 | 4026 ft | 199 kts | 82° |
| 2026-05-06 15:21 | 49.00921 | 2.22503 | 4020 ft | 199 kts | 82° |
| 2026-05-06 15:21 | 49.01026 | 2.24617 | 3913 ft | 200 kts | 82° |
| 2026-05-06 15:21 | 49.01132 | 2.26729 | 3656 ft | 198 kts | 82° |
| 2026-05-06 15:22 | 49.01237 | 2.28795 | 3400 ft | 196 kts | 82° |
| 2026-05-06 15:22 | 49.01342 | 2.30864 | 3142 ft | 194 kts | 82° |
| 2026-05-06 15:22 | 49.01446 | 2.32895 | 2890 ft | 192 kts | 82° |
| 2026-05-06 15:22 | 49.01551 | 2.34919 | 2633 ft | 191 kts | 82° |
| 2026-05-06 15:23 | 49.01656 | 2.36955 | 2379 ft | 190 kts | 82° |
| 2026-05-06 15:23 | 49.01759 | 2.38950 | 2124 ft | 188 kts | 82° |
| 2026-05-06 15:23 | 49.01860 | 2.40903 | 1866 ft | 180 kts | 82° |
| 2026-05-06 15:23 | 49.01959 | 2.42782 | 1629 ft | 179 kts | 83° |
| 2026-05-06 15:24 | 49.02058 | 2.44679 | 1401 ft | 177 kts | 83° |
| 2026-05-06 15:24 | 49.02156 | 2.46536 | 1173 ft | 175 kts | 82° |
| 2026-05-06 15:24 | 49.02252 | 2.48358 | 931 ft | 166 kts | 82° |
| 2026-05-06 15:24 | 49.02343 | 2.50079 | 717 ft | 165 kts | 83° |
| 2026-05-06 15:25 | 49.02431 | 2.51820 | 519 ft | 164 kts | 83° |
| 2026-05-06 15:25 | 49.02520 | 2.53552 | 387 ft | 157 kts | 82° |
| 2026-05-06 15:25 | 49.02596 | 2.54716 | 387 ft | 61 kts | 81° |
| 2026-05-06 15:25 | 49.02609 | 2.55079 | 387 ft | 29 kts | 88° |
| 2026-05-06 15:26 | 49.02548 | 2.55360 | 389 ft | 28 kts | 115° |
| 2026-05-06 15:26 | 49.02481 | 2.55554 | 389 ft | 6 kts | 131° |
| 2026-05-06 15:26 | 49.02477 | 2.55559 | 389 ft | 0 kts | 131° |
| 2026-05-06 15:26 | 49.02441 | 2.55594 | 389 ft | 11 kts | 154° |
| 2026-05-06 15:27 | 49.02416 | 2.55606 | 389 ft | 0 kts | 167° |
| 2026-05-06 15:28 | 49.02365 | 2.55620 | 389 ft | 21 kts | 171° |
| 2026-05-06 15:28 | 49.02210 | 2.55639 | 386 ft | 23 kts | 175° |
| 2026-05-06 15:28 | 49.02103 | 2.55675 | 384 ft | 8 kts | 128° |
| 2026-05-06 15:29 | 49.02069 | 2.55728 | 383 ft | 4 kts | 183° |
| 2026-05-06 15:29 | 49.02050 | 2.55673 | 383 ft | 7 kts | 269° |
| 2026-05-06 15:29 | 49.02054 | 2.55552 | 383 ft | 15 kts | 270° |
| 2026-05-06 15:29 | 49.02054 | 2.55376 | 383 ft | 17 kts | 270° |
| 2026-05-06 15:30 | 49.02045 | 2.55189 | 383 ft | 17 kts | 265° |
| 2026-05-06 15:30 | 49.02031 | 2.54994 | 383 ft | 18 kts | 256° |
| 2026-05-06 15:30 | 49.01936 | 2.54854 | 379 ft | 20 kts | 187° |
| 2026-05-06 15:30 | 49.01856 | 2.54818 | 379 ft | 6 kts | 236° |
| 2026-05-06 15:31 | 49.01839 | 2.54704 | 376 ft | 17 kts | 262° |
| 2026-05-06 15:31 | 49.01825 | 2.54505 | 375 ft | 19 kts | 265° |
| 2026-05-06 15:31 | 49.01799 | 2.54324 | 375 ft | 15 kts | 234° |
| 2026-05-06 15:32 | 49.01734 | 2.54203 | 375 ft | 0 kts | 229° |